x

Isle Of Shoals, Nh (iosn3) Weather Station

4:00am - Thu 26th Apr 2018 All times are EDT. -4 hours from GMT.

  • Wind
    20mph, 21mph gusts
  • Air Temp 48°f
  • Sea Pressure 1002.1mb
  • Isle Of Shoals, Nh
  • Isle Of Shoals, Nh

More Historic Weather Station data

Upgrade to MSW Pro to gain access to the past 30 days of data for over 8000 Wavebouys and Weather Stations around the globe.

Join

Comparision Forecast

View Surf forecast
   
Thu 04/26 4:00am 20 21 mph 1002.1mb 48f
3:00am 20 21 mph 1002.6mb 47f
2:00am 11 14 mph 1003.4mb 46f
1:00am 21 22 mph 1004mb 47f
12:00am 13 15 mph 1005.2mb 46f
Wed 04/25 11:00pm 22 23 mph 1006.2mb 46f
10:00pm 21 22 mph 1007mb 46f
9:00pm 25 28 mph 1007.5mb 47f
8:00pm 29 31 mph 1007.7mb 47f
7:00pm 31 33 mph 1008.1mb 51f
6:00pm 26 29 mph 1009.4mb 47f
5:00pm 29 31 mph 1010.8mb 47f
4:00pm 23 24 mph 1012mb 47f
3:00pm 21 22 mph 1013.7mb 46f
2:00pm 18 20 mph 1015.1mb 46f
1:00pm 16 16 mph 1016.3mb 47f
12:00pm 11 11 mph 1017.6mb 46f
11:00am 11 13 mph 1018.6mb 46f
10:00am 14 14 mph 1019.4mb 46f
9:00am 8 8 mph 1020.3mb 45f
8:00am 8 9 mph 1020.8mb 45f
7:00am 7 7 mph 1021mb 44f
6:00am 10 10 mph 1020.8mb 46f
5:00am 13 14 mph 1021mb 47f
4:00am 14 14 mph 1021.7mb 48f
3:00am 16 17 mph 1022.2mb 50f
2:00am 20 21 mph 1022.7mb 53f
1:00am 26 28 mph 1023.1mb 49f
12:00am 26 28 mph 1023.5mb 49f
Tue 04/24 11:00pm 25 26 mph 1023.6mb 49f
10:00pm 22 23 mph 1024mb 50f
9:00pm 26 28 mph 1023.6mb 51f
5:00pm 32 34 mph 1023.4mb 51f
3:00pm 32 33 mph 1024.4mb 51f
12:00pm 20 21 mph 1027.1mb 50f
7:00am 14 15 mph 1028.9mb 44f
6:00am 13 14 mph 1028.5mb 44f
5:00am 10 10 mph 1028.6mb 44f
3:00am 13 13 mph 1028.7mb 45f
1:00am 20 21 mph 1029.2mb 47f
12:00am 20 20 mph 1029.4mb 47f
Mon 04/23 11:00pm 23 23 mph 1029.4mb 48f
10:00pm 22 23 mph 1029.7mb 48f
9:00pm 23 25 mph 1029.9mb 47f
8:00pm 21 22 mph 1029.4mb 47f
4:00pm 18 20 mph 1029.9mb 47f
3:00pm 21 22 mph 1030.2mb 48f
11:00am 2 2 mph 1032.6mb 52f
10:00am 8 8 mph 1032.7mb 49f
9:00am 8 8 mph 1032.5mb 45f
2:00am 9 9 mph 1029.3mb 46f
1:00am 10 10 mph 1029.1mb 46f
12:00am 10 10 mph 1028.7mb 47f
Sun 04/22 9:00pm 14 15 mph 1027.4mb 47f
8:00pm 20 20 mph 1026.4mb 47f
7:00pm 18 20 mph 1025.8mb 49f
6:00pm 21 22 mph 1025.6mb 47f
5:00pm 18 20 mph 1025.4mb 46f
4:00pm 16 17 mph 1025.6mb 46f
3:00pm 17 17 mph 1025.7mb 47f
2:00pm 16 16 mph 1026.3mb 47f
1:00pm 10 11 mph 1026.4mb 47f
12:00pm 2 3 mph 1026.7mb 49f
11:00am 10 11 mph 1026.8mb 49f
10:00am 7 8 mph 1026.9mb 47f